»·PEaware :: N104AD PHOG-KVNY

N104AD :: PHOG-KVNY

FLIGHT INFORMATION

Flight Status: Arrived
Operator: Privately registered:
United States
More flights under this callsign
Pilot: Chris A. (85)
Aircraft: GULFSTREAM G-1159C GULFSTREAM 4
(GLF4)
More flights by this aircraft type
Origin: PHOG Kahului
United States
Destination: KVNY Van Nuys
United States
More flights between these airports :: More routes between these airports
Route: +EBBER ELOYI R577 EDSEL RZS FERN7
File this flight plan on PilotEdge
Remarks: PBN / A1B1C1D1S1S2 DOF / 180105 REG / N104AD EET / KZAK0041 KZLA0417 SEL / QSDL PER / C RMK / TCAS
Altitude:
(Current/Filed)
43,000ft
Speed:
(Current/Filed)
450kts
Departed: 04-Jan-18 09:16 PM
Arrived: 04-Jan-18 10:34 PM
Distance/Time
Traveled:
2155nm/1:17
Distance/Time
To Go:
Arrived

Flight Plot

Page will automatically refresh every two minutes.

Flight plan parsing failed; only flown route is shown


Map Options




Map Legend


Flown Route
Filed Route
Departure Airport
Arrival Airport
Navaid (VOR, NDB)
Fix

Horizontal Profiles

Position Reports

Time Latitude Longitude Heading Altitude Ground
Speed
04-Jan-18 21:21 31.113221 -128.688121 74 45158ft 500kts
04-Jan-18 21:22 31.154461 -128.533220 75 45159ft 500kts
04-Jan-18 21:23 31.195628 -128.377760 75 45161ft 500kts
04-Jan-18 21:24 31.236490 -128.222611 75 45162ft 500kts
04-Jan-18 21:25 31.277181 -128.067270 75 45174ft 500kts
04-Jan-18 21:26 31.317770 -127.911470 75 45178ft 499kts
04-Jan-18 21:27 31.358008 -127.756167 75 45179ft 499kts
04-Jan-18 21:28 31.398057 -127.600734 75 45180ft 500kts
04-Jan-18 21:29 31.438110 -127.444421 75 45181ft 500kts
04-Jan-18 21:30 31.477839 -127.288503 76 45194ft 500kts
04-Jan-18 21:31 31.517524 -127.131877 76 45216ft 500kts
04-Jan-18 21:32 31.556878 -126.975675 76 45219ft 501kts
04-Jan-18 21:33 31.596093 -126.819135 76 45219ft 501kts
04-Jan-18 21:34 31.635280 -126.661808 76 45220ft 501kts
04-Jan-18 21:35 31.674138 -126.504903 76 45222ft 501kts
04-Jan-18 21:36 31.712788 -126.347930 76 45223ft 501kts
04-Jan-18 21:37 31.751371 -126.190315 76 45225ft 501kts
04-Jan-18 21:38 31.789641 -126.033054 76 45226ft 501kts
04-Jan-18 21:39 31.827834 -125.875183 76 45226ft 501kts
04-Jan-18 21:40 31.865715 -125.717670 77 45230ft 502kts
04-Jan-18 21:41 31.903085 -125.561355 77 45231ft 501kts
04-Jan-18 21:42 31.940781 -125.402731 77 45232ft 502kts
04-Jan-18 21:43 31.978190 -125.244358 77 45234ft 502kts
04-Jan-18 21:44 32.015543 -125.085250 77 45235ft 503kts
04-Jan-18 21:45 32.052601 -124.926433 78 45236ft 503kts
04-Jan-18 21:46 32.089532 -124.767180 78 45238ft 505kts
04-Jan-18 21:47 32.126449 -124.606990 78 45239ft 505kts
04-Jan-18 21:48 32.163176 -124.447038 78 45246ft 506kts
04-Jan-18 21:49 32.199773 -124.286603 78 45255ft 507kts
04-Jan-18 21:50 32.236150 -124.125353 77 45239ft 507kts
04-Jan-18 21:51 32.290572 -123.970672 68 45237ft 512kts
04-Jan-18 21:52 32.348896 -123.816530 68 45236ft 512kts
04-Jan-18 21:53 32.406974 -123.662841 68 45240ft 512kts
04-Jan-18 21:54 32.464977 -123.509110 68 45241ft 512kts
04-Jan-18 21:55 32.522691 -123.355009 68 45241ft 512kts
04-Jan-18 21:56 32.580319 -123.200297 68 45243ft 511kts
04-Jan-18 21:57 32.637773 -123.045306 68 45251ft 513kts
04-Jan-18 21:58 32.694911 -122.890441 68 45250ft 513kts
04-Jan-18 21:59 32.751892 -122.735281 68 45249ft 514kts
04-Jan-18 22:00 32.808992 -122.579074 68 45251ft 514kts
04-Jan-18 22:01 32.865633 -122.423394 68 45248ft 513kts
04-Jan-18 22:02 32.922555 -122.267833 65 45248ft 514kts
04-Jan-18 22:03 33.003683 -122.126973 51 45255ft 516kts
04-Jan-18 22:04 33.083866 -121.985537 58 45248ft 516kts
04-Jan-18 22:05 33.159759 -121.839465 58 45242ft 517kts
04-Jan-18 22:06 33.235277 -121.693580 58 45244ft 516kts
04-Jan-18 22:07 33.310655 -121.547779 58 45256ft 516kts
04-Jan-18 22:08 33.386080 -121.401277 58 45263ft 516kts
04-Jan-18 22:09 33.461076 -121.255011 58 45263ft 516kts
04-Jan-18 22:10 33.535936 -121.108414 58 45263ft 516kts
04-Jan-18 22:11 33.610989 -120.960834 58 44990ft 521kts
04-Jan-18 22:12 33.686825 -120.811093 58 42722ft 527kts
04-Jan-18 22:13 33.762702 -120.660630 54 39917ft 523kts
04-Jan-18 22:14 33.837885 -120.510925 54 37121ft 527kts
04-Jan-18 22:15 33.913890 -120.358923 57 34154ft 531kts
04-Jan-18 22:16 33.990233 -120.205577 56 31251ft 533kts
04-Jan-18 22:17 34.064014 -120.056708 56 28651ft 505kts
04-Jan-18 22:18 34.128892 -119.925245 58 26208ft 487kts
04-Jan-18 22:19 34.196723 -119.787198 60 23212ft 467kts
04-Jan-18 22:20 34.261218 -119.655344 60 20212ft 445kts
04-Jan-18 22:21 34.324131 -119.530241 59 17208ft 424kts
04-Jan-18 22:22 34.375883 -119.424573 60 14736ft 403kts
04-Jan-18 22:23 34.424722 -119.313287 80 12123ft 345kts
04-Jan-18 22:24 34.415465 -119.216137 105 10391ft 300kts
04-Jan-18 22:25 34.398461 -119.120157 103 9185ft 287kts
04-Jan-18 22:26 34.381936 -119.027138 103 9020ft 284kts
04-Jan-18 22:27 34.366222 -118.935701 103 9018ft 271kts
04-Jan-18 22:28 34.367457 -118.846064 68 9023ft 277kts
04-Jan-18 22:29 34.410640 -118.765635 52 7634ft 280kts
04-Jan-18 22:30 34.457319 -118.693699 52 6158ft 262kts
04-Jan-18 22:31 34.501019 -118.626078 52 5049ft 241kts
04-Jan-18 22:32 34.528880 -118.556097 82 5044ft 234kts
04-Jan-18 22:33 34.493386 -118.501358 151 5066ft 225kts
04-Jan-18 22:34 34.435780 -118.495826 201 5028ft 217kts
04-Jan-18 22:35 34.383581 -118.507324 174 4710ft 178kts
04-Jan-18 22:36 34.336342 -118.502353 176 3629ft 166kts
04-Jan-18 22:37 34.294116 -118.498364 177 2690ft 158kts
04-Jan-18 22:38 34.251468 -118.494336 176 1726ft 143kts
04-Jan-18 22:39 34.214920 -118.490827 177 833ft 127kts
04-Jan-18 22:40 34.202667 -118.488851 83 810ft 6kts
04-Jan-18 22:41 34.205602 -118.488413 3 810ft 8kts
04-Jan-18 22:42 34.205701 -118.487430 88 810ft 3kts
04-Jan-18 22:43 34.205219 -118.486958 181 810ft 0kts
04-Jan-18 22:44 34.205219 -118.486958 181 810ft 0kts
04-Jan-18 22:45 34.205219 -118.486958 181 810ft 0kts
04-Jan-18 22:46 34.205219 -118.486958 181 810ft 0kts
04-Jan-18 22:47 34.205219 -118.486958 181 810ft 0kts

Navigation Log

Ident Type
Flight plan parsing failed, navigation log unavailable